Wittman, Maryland
Current Conditions -  °F | °C
As of 1:23 AM on Wednesday 22 Oct 2014 (Local Time) from KESN Reporting Station
Light Rain Light Rain  
Wind Chill: 56°   Ceiling: 900
Heat Index: 56°   Visibility: 5mi
Dew Point: 56°   Wind: 0mph
Humidity: 100%   Direction: NA
Pressure: 29.88"   Gusts: NA
Location:  38.79°N, 76.29°W
Report Text: KESN 220523Z AUTO 00000KT 5SM -RA BKN009 OVC060 14/14 A2988 RMK AO2 P0001 T01350135
Loading
Personal Weather Stations






























Interactive Weather Map
Tropical Storm Tracking
New forecast layout! Learn more

10-Day Weather Forecast

Advertisements
Track Severe Weather on mobile